createdAt,value
2023-03-26T00:00:23.941Z,97585.91
2023-03-26T00:01:56.926Z,97585.59
2023-03-26T00:03:30.063Z,97581.25
2023-03-26T00:05:02.793Z,97579.69
2023-03-26T00:06:39.264Z,97583.84
2023-03-26T00:08:11.490Z,97586.13
2023-03-26T00:09:44.091Z,97595.22
2023-03-26T00:11:17.723Z,97594.47
2023-03-26T00:12:49.444Z,97601.03
2023-03-26T00:14:21.441Z,97595.31
2023-03-26T00:15:53.349Z,97599.41
2023-03-26T00:17:25.145Z,97602.78
2023-03-26T00:18:57.926Z,97594.94
2023-03-26T00:20:32.743Z,97591.84
2023-03-26T00:22:04.392Z,97591.47
2023-03-26T00:23:36.085Z,97591.66
2023-03-26T00:25:08.168Z,97587.91
2023-03-26T00:26:41.032Z,97582.50
2023-03-26T00:28:13.540Z,97585.41
2023-03-26T00:29:45.155Z,97599.81
2023-03-26T00:31:17.112Z,97591.59
2023-03-26T00:32:53.379Z,97599.97
2023-03-26T00:34:26.599Z,97600.84
2023-03-26T00:36:03.186Z,97593.13
2023-03-26T00:37:36.003Z,97588.66
2023-03-26T00:39:07.892Z,97590.91
2023-03-26T00:40:44.167Z,97586.97
2023-03-26T00:42:15.854Z,97584.84
2023-03-26T00:43:48.483Z,97584.84
2023-03-26T00:45:21.956Z,97582.03
2023-03-26T00:46:53.687Z,97591.13
2023-03-26T00:48:42.180Z,97592.38
2023-03-26T00:50:17.050Z,97582.56
2023-03-26T00:51:48.667Z,97574.53
2023-03-26T00:53:20.804Z,97576.19
2023-03-26T00:54:52.422Z,97567.28
2023-03-26T00:56:25.170Z,97570.66
2023-03-26T00:57:57.339Z,97579.06
2023-03-26T00:59:30.397Z,97573.97
2023-03-26T01:01:06.352Z,97573.16
2023-03-26T01:02:38.168Z,97571.13
2023-03-26T01:04:31.612Z,97563.50
2023-03-26T01:06:27.769Z,97552.41
2023-03-26T01:08:30.732Z,97557.06
2023-03-26T01:10:02.424Z,97554.47
2023-03-26T01:11:35.812Z,97553.94
2023-03-26T01:13:07.668Z,97554.09
2023-03-26T01:14:39.960Z,97552.53
2023-03-26T01:16:21.304Z,97544.72
2023-03-26T01:17:57.847Z,97541.91
2023-03-26T01:19:45.176Z,97533.28
2023-03-26T01:21:30.121Z,97531.34
2023-03-26T01:23:05.345Z,97530.38
2023-03-26T01:24:38.724Z,97523.31
2023-03-26T01:26:28.658Z,97521.84
2023-03-26T01:28:01.052Z,97521.16
2023-03-26T01:29:49.176Z,97523.78
2023-03-26T01:31:47.881Z,97516.94
2023-03-26T01:33:30.153Z,97515.34
2023-03-26T01:35:31.618Z,97519.31
2023-03-26T01:37:13.178Z,97517.47
2023-03-26T01:38:55.613Z,97507.63
2023-03-26T01:40:38.752Z,97507.69
2023-03-26T01:42:19.932Z,97501.75
2023-03-26T01:44:00.788Z,97496.97
2023-03-26T01:45:36.166Z,97488.34
2023-03-26T01:47:09.418Z,97488.75
2023-03-26T01:48:43.835Z,97479.53
2023-03-26T01:50:15.623Z,97480.78
2023-03-26T01:51:47.770Z,97481.25
2023-03-26T01:53:19.609Z,97470.97
2023-03-26T01:54:52.466Z,97474.03
2023-03-26T01:56:45.935Z,97471.72
2023-03-26T01:58:38.033Z,97464.03
2023-03-26T02:00:20.813Z,97471.63
2023-03-26T02:02:04.944Z,97464.94
2023-03-26T02:03:45.145Z,97461.69
2023-03-26T02:05:22.890Z,97456.31
2023-03-26T02:07:02.039Z,97454.09
2023-03-26T02:08:38.330Z,97450.53
2023-03-26T02:10:17.230Z,97444.34
2023-03-26T02:11:50.846Z,97437.13
2023-03-26T02:13:22.822Z,97439.25
2023-03-26T02:14:54.442Z,97427.34
2023-03-26T02:16:26.074Z,97425.88
2023-03-26T02:17:59.764Z,97429.75
2023-03-26T02:19:33.320Z,97422.06
2023-03-26T02:21:14.196Z,97422.59
2023-03-26T02:22:47.532Z,97418.88
2023-03-26T02:24:22.167Z,97419.84
2023-03-26T02:25:58.364Z,97415.81
2023-03-26T02:27:30.026Z,97416.66
2023-03-26T02:29:02.234Z,97411.50
2023-03-26T02:30:33.973Z,97403.31
2023-03-26T02:32:07.885Z,97398.72
2023-03-26T02:33:40.388Z,97398.88
2023-03-26T02:35:12.895Z,97393.47
2023-03-26T02:36:44.715Z,97401.72
2023-03-26T02:38:16.604Z,97396.31
2023-03-26T02:39:48.238Z,97385.44
2023-03-26T02:41:29.862Z,97384.06
2023-03-26T02:43:05.880Z,97384.28
2023-03-26T02:44:40.236Z,97381.03
2023-03-26T02:46:17.686Z,97375.50
2023-03-26T02:48:08.514Z,97369.66
2023-03-26T02:49:54.118Z,97364.47
2023-03-26T02:51:37.448Z,97360.66
2023-03-26T02:53:17.417Z,97356.19
2023-03-26T02:54:53.576Z,97345.09
2023-03-26T02:56:27.878Z,97343.31
2023-03-26T02:58:20.086Z,97339.38
2023-03-26T02:59:52.825Z,97338.63
2023-03-26T03:01:42.924Z,97332.69
2023-03-26T03:03:17.288Z,97328.16
2023-03-26T03:05:05.936Z,97325.34
2023-03-26T03:06:40.402Z,97327.63
2023-03-26T03:08:12.130Z,97330.19
2023-03-26T03:09:50.890Z,97322.41
2023-03-26T03:11:45.424Z,97322.69
2023-03-26T03:13:17.013Z,97315.03
2023-03-26T03:14:48.631Z,97317.50
2023-03-26T03:16:20.774Z,97311.63
2023-03-26T03:17:52.680Z,97313.25
2023-03-26T03:19:24.631Z,97310.66
2023-03-26T03:20:56.511Z,97306.13
2023-03-26T03:22:28.033Z,97308.72
2023-03-26T03:24:00.603Z,97307.09
2023-03-26T03:25:35.941Z,97301.25
2023-03-26T03:27:07.497Z,97307.06
2023-03-26T03:28:45.832Z,97300.06
2023-03-26T03:30:19.814Z,97298.41
2023-03-26T03:31:51.559Z,97291.06
2023-03-26T03:33:46.554Z,97289.06
2023-03-26T03:35:19.742Z,97288.72
2023-03-26T03:36:54.674Z,97288.00
2023-03-26T03:38:38.521Z,97284.94
2023-03-26T03:40:10.991Z,97277.75
2023-03-26T03:41:43.762Z,97274.81
2023-03-26T03:43:19.094Z,97278.88
2023-03-26T03:45:16.937Z,97270.25
2023-03-26T03:47:07.038Z,97284.53
2023-03-26T03:48:39.229Z,97283.59
2023-03-26T03:50:12.341Z,97287.00
2023-03-26T03:51:52.606Z,97287.34
2023-03-26T03:53:31.803Z,97280.03
2023-03-26T03:55:05.545Z,97278.56
2023-03-26T03:56:57.466Z,97276.41
2023-03-26T03:58:48.217Z,97264.03
2023-03-26T04:00:25.943Z,97266.97
2023-03-26T04:02:26.326Z,97262.44
2023-03-26T04:04:02.393Z,97256.75
2023-03-26T04:05:55.093Z,97253.97
2023-03-26T04:07:33.522Z,97253.69
2023-03-26T04:09:10.762Z,97251.22
2023-03-26T04:10:45.428Z,97242.44
2023-03-26T04:12:17.229Z,97237.91
2023-03-26T04:14:04.695Z,97238.72
2023-03-26T04:15:50.274Z,97242.31
2023-03-26T04:17:23.000Z,97234.50
2023-03-26T04:18:58.403Z,97237.25
2023-03-26T04:20:30.235Z,97233.50
2023-03-26T04:22:05.067Z,97227.31
2023-03-26T04:23:42.541Z,97238.38
2023-03-26T04:25:30.428Z,97235.47
2023-03-26T04:27:27.983Z,97220.16
2023-03-26T04:29:11.979Z,97218.75
2023-03-26T04:30:44.910Z,97219.22
2023-03-26T04:32:42.947Z,97218.25
2023-03-26T04:34:26.212Z,97216.47
2023-03-26T04:36:18.533Z,97223.97
2023-03-26T04:37:52.952Z,97217.63
2023-03-26T04:39:33.980Z,97213.88
2023-03-26T04:41:32.410Z,97212.25
2023-03-26T04:43:18.094Z,97209.97
2023-03-26T04:44:59.728Z,97209.78
2023-03-26T04:46:33.614Z,97200.88
2023-03-26T04:48:17.251Z,97194.69
2023-03-26T04:49:48.834Z,97188.19
2023-03-26T04:51:27.093Z,97174.03
2023-03-26T04:53:00.120Z,97167.16
2023-03-26T04:54:58.174Z,97171.38
2023-03-26T04:56:47.326Z,97178.13
2023-03-26T04:58:34.011Z,97180.91
2023-03-26T05:00:18.812Z,97182.34
2023-03-26T05:01:57.920Z,97179.94
2023-03-26T05:03:32.433Z,97183.97
2023-03-26T05:05:09.545Z,97188.34
2023-03-26T05:06:41.981Z,97182.78
2023-03-26T05:08:23.453Z,97175.94
2023-03-26T05:09:57.344Z,97175.75
2023-03-26T05:11:55.584Z,97173.00
2023-03-26T05:13:27.310Z,97183.09
2023-03-26T05:15:00.934Z,97180.03
2023-03-26T05:16:57.033Z,97167.31
2023-03-26T05:18:28.673Z,97165.84
2023-03-26T05:20:01.299Z,97159.56
2023-03-26T05:21:33.465Z,97154.34
2023-03-26T05:23:05.821Z,97140.84
2023-03-26T05:24:39.768Z,97139.72
2023-03-26T05:26:11.501Z,97138.38
2023-03-26T05:27:43.779Z,97126.22
2023-03-26T05:29:17.315Z,97128.00
2023-03-26T05:30:53.424Z,97121.66
2023-03-26T05:32:26.243Z,97120.81
2023-03-26T05:34:00.592Z,97120.66
2023-03-26T05:35:32.890Z,97114.78
2023-03-26T05:37:06.760Z,97108.31
2023-03-26T05:39:07.256Z,97109.31
2023-03-26T05:41:04.481Z,97101.19
2023-03-26T05:42:36.554Z,97100.22
2023-03-26T05:44:26.532Z,97098.28
2023-03-26T05:45:58.208Z,97089.66
2023-03-26T05:47:33.701Z,97089.50
2023-03-26T05:49:05.310Z,97082.81
2023-03-26T05:50:39.672Z,97088.50
2023-03-26T05:52:15.128Z,97085.59
2023-03-26T05:54:22.098Z,97084.13
2023-03-26T05:56:12.541Z,97074.06
2023-03-26T05:58:04.042Z,97073.88
2023-03-26T05:59:56.263Z,97064.47
2023-03-26T06:01:46.514Z,97073.59
2023-03-26T06:03:23.125Z,97066.09
2023-03-26T06:05:14.777Z,97065.91
2023-03-26T06:07:02.059Z,97063.00
2023-03-26T06:08:34.023Z,97058.25
2023-03-26T06:10:06.501Z,97059.59
2023-03-26T06:11:38.135Z,97054.72
2023-03-26T06:13:10.505Z,97056.22
2023-03-26T06:14:44.942Z,97054.28
2023-03-26T06:16:28.370Z,97042.53
2023-03-26T06:18:20.675Z,97043.22
2023-03-26T06:20:24.909Z,97047.91
2023-03-26T06:21:57.500Z,97044.50
2023-03-26T06:23:34.752Z,97045.81
2023-03-26T06:25:12.501Z,97037.19
2023-03-26T06:26:56.276Z,97038.16
2023-03-26T06:28:27.832Z,97039.94
2023-03-26T06:30:22.523Z,97031.47
2023-03-26T06:32:18.472Z,97025.28
2023-03-26T06:34:23.946Z,97023.50
2023-03-26T06:35:56.053Z,97019.75
2023-03-26T06:37:27.687Z,97012.59
2023-03-26T06:39:07.691Z,97008.34
2023-03-26T06:40:41.197Z,97007.88
2023-03-26T06:42:12.854Z,97015.16
2023-03-26T06:43:56.731Z,97015.31
2023-03-26T06:45:51.013Z,97013.03
2023-03-26T06:47:40.966Z,97007.38
2023-03-26T06:49:31.516Z,96994.19
2023-03-26T06:51:35.127Z,96990.75
2023-03-26T06:53:27.241Z,96983.09
2023-03-26T06:55:19.827Z,96977.22
2023-03-26T06:56:59.938Z,96978.72
2023-03-26T06:58:51.796Z,96966.97
2023-03-26T07:00:54.021Z,96966.66
2023-03-26T07:02:45.015Z,96964.38
2023-03-26T07:04:35.516Z,96962.56
2023-03-26T07:06:30.499Z,96979.66
2023-03-26T07:08:20.787Z,96963.75
2023-03-26T07:10:10.682Z,96970.53
2023-03-26T07:11:45.145Z,96954.91
2023-03-26T07:13:19.310Z,96952.31
2023-03-26T07:15:10.433Z,96946.63
2023-03-26T07:17:00.252Z,96939.78
2023-03-26T07:19:01.177Z,96943.66
2023-03-26T07:20:38.968Z,96932.28
2023-03-26T07:22:19.724Z,96931.78
2023-03-26T07:24:11.541Z,96923.06
2023-03-26T07:25:54.625Z,96932.34
2023-03-26T07:28:07.904Z,96912.03
2023-03-26T07:30:12.310Z,96920.94
2023-03-26T07:32:21.452Z,96910.50
2023-03-26T07:34:13.471Z,96910.69
2023-03-26T07:36:12.120Z,96899.94
2023-03-26T07:38:13.935Z,96887.34
2023-03-26T07:40:16.129Z,96902.66
2023-03-26T07:42:26.799Z,96893.22
2023-03-26T07:44:44.728Z,96878.09
2023-03-26T07:46:36.916Z,96872.44
2023-03-26T07:48:43.911Z,96879.22
2023-03-26T07:50:25.455Z,96883.19
2023-03-26T07:52:12.868Z,96877.34
2023-03-26T07:54:00.649Z,96878.34
2023-03-26T07:56:14.334Z,96879.78
2023-03-26T07:58:22.394Z,96869.19
2023-03-26T08:00:48.698Z,96866.25
2023-03-26T08:02:24.282Z,96866.53
2023-03-26T08:04:38.910Z,96862.94
2023-03-26T08:06:33.670Z,96871.38
2023-03-26T08:08:38.183Z,96870.09
2023-03-26T08:10:56.571Z,96860.50
2023-03-26T08:12:39.044Z,96861.94
2023-03-26T08:14:26.283Z,96865.47
2023-03-26T08:16:15.592Z,96869.06
2023-03-26T08:17:54.222Z,96872.50
2023-03-26T08:19:54.117Z,96869.91
2023-03-26T08:21:31.769Z,96863.69
2023-03-26T08:23:12.242Z,96859.06
2023-03-26T08:24:57.287Z,96862.66
2023-03-26T08:26:51.483Z,96874.91
2023-03-26T08:28:40.260Z,96863.94
2023-03-26T08:30:20.397Z,96852.16
2023-03-26T08:31:53.740Z,96849.22
2023-03-26T08:33:27.715Z,96846.72
2023-03-26T08:35:01.195Z,96843.00
2023-03-26T08:36:32.865Z,96838.53
2023-03-26T08:38:04.494Z,96843.94
2023-03-26T08:39:38.909Z,96849.97
2023-03-26T08:41:10.474Z,96838.88
2023-03-26T08:43:23.603Z,96838.41
2023-03-26T08:45:22.165Z,96852.03
2023-03-26T08:47:21.110Z,96860.31
2023-03-26T08:49:19.430Z,96865.34
2023-03-26T08:51:23.114Z,96862.38
2023-03-26T08:52:57.522Z,96859.22
2023-03-26T08:55:26.092Z,96863.31
2023-03-26T08:57:17.787Z,96862.03
2023-03-26T08:59:14.229Z,96853.03
2023-03-26T09:01:10.939Z,96854.41
2023-03-26T09:03:00.647Z,96851.59
2023-03-26T09:05:02.965Z,96852.41
2023-03-26T09:06:40.960Z,96860.06
2023-03-26T09:09:04.592Z,96859.28
2023-03-26T09:10:50.492Z,96867.75
2023-03-26T09:12:44.260Z,96862.69
2023-03-26T09:14:30.706Z,96864.78
2023-03-26T09:16:20.831Z,96864.94
2023-03-26T09:17:57.776Z,96861.75
2023-03-26T09:19:35.825Z,96863.00
2023-03-26T09:21:24.946Z,96858.63
2023-03-26T09:23:25.369Z,96862.13
2023-03-26T09:25:03.087Z,96869.25
2023-03-26T09:26:59.177Z,96870.66
2023-03-26T09:29:12.244Z,96875.13
2023-03-26T09:31:08.604Z,96875.00
2023-03-26T09:33:17.664Z,96867.06
2023-03-26T09:35:12.610Z,96866.81
2023-03-26T09:36:53.828Z,96860.34
2023-03-26T09:38:43.804Z,96853.44
2023-03-26T09:40:20.255Z,96847.69
2023-03-26T09:42:11.761Z,96845.41
2023-03-26T09:43:49.401Z,96848.00
2023-03-26T09:45:22.526Z,96850.59
2023-03-26T09:46:56.966Z,96848.75
2023-03-26T09:49:17.358Z,96850.16
2023-03-26T09:51:01.551Z,96847.09
2023-03-26T09:53:21.212Z,96845.38
2023-03-26T09:55:27.358Z,96846.94
2023-03-26T09:57:53.575Z,96850.78
2023-03-26T09:59:36.883Z,96843.31
2023-03-26T10:01:12.525Z,96841.31
2023-03-26T10:03:15.780Z,96833.09
2023-03-26T10:04:47.700Z,96839.69
2023-03-26T10:06:44.911Z,96845.13
2023-03-26T10:08:41.348Z,96861.69
2023-03-26T10:10:41.739Z,96868.44
2023-03-26T10:12:22.507Z,96866.72
2023-03-26T10:14:18.835Z,96856.81
2023-03-26T10:16:17.356Z,96865.50
2023-03-26T10:18:29.798Z,96858.00
2023-03-26T10:20:20.090Z,96855.75
2023-03-26T10:22:30.742Z,96852.44
2023-03-26T10:24:05.967Z,96857.97
2023-03-26T10:25:56.727Z,96845.88
2023-03-26T10:27:50.119Z,96842.69
2023-03-26T10:29:30.780Z,96845.94
2023-03-26T10:31:34.343Z,96840.00
2023-03-26T10:33:32.731Z,96846.16
2023-03-26T10:35:23.189Z,96848.75
2023-03-26T10:37:17.710Z,96848.03
2023-03-26T10:39:37.736Z,96849.94
2023-03-26T10:41:21.159Z,96841.19
2023-03-26T10:43:04.784Z,96848.53
2023-03-26T10:44:48.585Z,96841.50
2023-03-26T10:46:32.296Z,96848.63
2023-03-26T10:48:04.082Z,96835.97
2023-03-26T10:50:06.552Z,96843.72
2023-03-26T10:51:53.458Z,96836.91
2023-03-26T10:53:51.447Z,96846.19
2023-03-26T10:55:32.405Z,96847.72
2023-03-26T10:57:19.531Z,96850.50
2023-03-26T10:58:51.775Z,96844.66
2023-03-26T11:00:26.454Z,96848.47
2023-03-26T11:02:18.032Z,96853.53
2023-03-26T11:03:52.608Z,96860.09
2023-03-26T11:05:27.785Z,96862.59
2023-03-26T11:07:23.213Z,96870.91
2023-03-26T11:09:27.919Z,96872.06
2023-03-26T11:11:23.716Z,96875.47
2023-03-26T11:13:16.052Z,96872.50
2023-03-26T11:15:03.459Z,96868.84
2023-03-26T11:16:53.413Z,96872.16
2023-03-26T11:18:47.880Z,96866.63
2023-03-26T11:20:34.367Z,96868.53
2023-03-26T11:22:50.413Z,96858.44
2023-03-26T11:24:58.763Z,96861.03
2023-03-26T11:26:56.001Z,96857.38
2023-03-26T11:28:40.346Z,96844.19
2023-03-26T11:30:49.800Z,96856.03
2023-03-26T11:32:27.030Z,96849.00
2023-03-26T11:34:06.310Z,96848.13
2023-03-26T11:35:43.896Z,96857.00
2023-03-26T11:37:23.915Z,96853.34
2023-03-26T11:39:00.157Z,96854.13
2023-03-26T11:40:42.960Z,96841.44
2023-03-26T11:42:24.156Z,96847.59
2023-03-26T11:44:02.762Z,96842.25
2023-03-26T11:45:38.122Z,96847.16
2023-03-26T11:47:15.050Z,96837.09
2023-03-26T11:48:57.512Z,96843.47
2023-03-26T11:50:32.907Z,96839.94
2023-03-26T11:52:04.508Z,96838.59
2023-03-26T11:53:39.691Z,96834.13
2023-03-26T11:55:12.508Z,96826.69
2023-03-26T11:57:08.479Z,96833.91
2023-03-26T11:58:42.928Z,96842.34
2023-03-26T12:00:23.233Z,96831.19
2023-03-26T12:02:12.723Z,96831.69
2023-03-26T12:03:57.022Z,96819.72
2023-03-26T12:05:36.559Z,96814.06
2023-03-26T12:07:18.440Z,96820.09
2023-03-26T12:08:50.070Z,96812.91
2023-03-26T12:10:24.166Z,96812.41
2023-03-26T12:12:03.668Z,96810.13
2023-03-26T12:13:39.530Z,96806.66
2023-03-26T12:15:15.916Z,96818.97
2023-03-26T12:17:08.526Z,96811.13
2023-03-26T12:18:43.747Z,96800.41
2023-03-26T12:20:36.067Z,96805.38
2023-03-26T12:22:38.541Z,96793.16
2023-03-26T12:24:25.176Z,96784.41
2023-03-26T12:26:19.076Z,96786.63
2023-03-26T12:28:03.013Z,96775.22
2023-03-26T12:29:34.896Z,96787.13
2023-03-26T12:31:07.621Z,96785.94
2023-03-26T12:32:46.410Z,96784.78
2023-03-26T12:34:21.597Z,96782.81
2023-03-26T12:36:01.094Z,96775.84
2023-03-26T12:37:38.516Z,96765.47
2023-03-26T12:40:09.450Z,96774.09
2023-03-26T12:43:40.482Z,96764.84
2023-03-26T12:44:46.702Z,96760.25
2023-03-26T12:45:23.721Z,96752.84
2023-03-26T12:48:00.517Z,96757.88
2023-03-26T12:49:11.956Z,96740.25
2023-03-26T12:51:04.099Z,96749.69
2023-03-26T12:52:45.176Z,96737.66
2023-03-26T12:54:25.967Z,96753.00
2023-03-26T12:56:15.490Z,96738.19
2023-03-26T12:58:13.758Z,96739.78
2023-03-26T12:59:48.851Z,96734.78
2023-03-26T13:01:38.887Z,96736.25
2023-03-26T13:03:32.170Z,96733.38
2023-03-26T13:05:32.960Z,96730.19
2023-03-26T13:07:07.725Z,96724.78
2023-03-26T13:09:03.318Z,96732.63
2023-03-26T13:10:38.736Z,96729.06
2023-03-26T13:12:14.419Z,96717.69
2023-03-26T13:14:02.063Z,96711.44
2023-03-26T13:15:43.351Z,96718.13
2023-03-26T13:17:15.154Z,96718.38
2023-03-26T13:18:51.224Z,96723.72
2023-03-26T13:20:38.522Z,96725.25
2023-03-26T13:22:28.630Z,96710.69
2023-03-26T13:24:06.266Z,96723.94
2023-03-26T13:25:59.064Z,96713.75
2023-03-26T13:27:35.824Z,96720.19
2023-03-26T13:29:18.735Z,96708.84
2023-03-26T13:31:14.387Z,96710.41
2023-03-26T13:33:12.225Z,96690.00
2023-03-26T13:35:20.991Z,96687.22
2023-03-26T13:37:01.598Z,96695.22
2023-03-26T13:38:58.863Z,96702.19
2023-03-26T13:40:46.383Z,96704.03
2023-03-26T13:42:21.786Z,96693.59
2023-03-26T13:44:19.279Z,96680.50
2023-03-26T13:45:59.117Z,96687.78
2023-03-26T13:47:35.185Z,96688.25
2023-03-26T13:49:13.518Z,96692.59
2023-03-26T13:50:57.152Z,96685.25
2023-03-26T13:52:38.387Z,96696.09
2023-03-26T13:54:31.864Z,96683.81
2023-03-26T13:56:05.557Z,96687.03
2023-03-26T13:57:47.000Z,96687.00
2023-03-26T13:59:31.884Z,96683.75
2023-03-26T14:01:10.984Z,96688.88
2023-03-26T14:02:44.348Z,96683.16
2023-03-26T14:04:21.489Z,96692.16
2023-03-26T14:05:57.301Z,96690.19
2023-03-26T14:07:40.629Z,96681.78
2023-03-26T14:09:31.962Z,96683.25
2023-03-26T14:11:11.053Z,96684.19
2023-03-26T14:12:52.411Z,96675.22
2023-03-26T14:14:32.410Z,96674.34
2023-03-26T14:16:35.387Z,96674.28
2023-03-26T14:18:39.308Z,96674.03
2023-03-26T14:20:41.927Z,96659.44
2023-03-26T14:22:29.842Z,96672.81
2023-03-26T14:24:20.299Z,96674.44
2023-03-26T14:26:14.035Z,96675.66
2023-03-26T14:28:09.630Z,96669.63
2023-03-26T14:30:20.625Z,96680.88
2023-03-26T14:31:58.332Z,96688.47
2023-03-26T14:33:53.190Z,96691.25
2023-03-26T14:35:31.613Z,96683.75
2023-03-26T14:37:28.836Z,96687.88
2023-03-26T14:39:24.638Z,96700.63
2023-03-26T14:41:01.968Z,96696.69
2023-03-26T14:43:15.955Z,96690.47
2023-03-26T14:45:22.047Z,96692.25
2023-03-26T14:47:09.736Z,96704.97
2023-03-26T14:49:23.175Z,96704.00
2023-03-26T14:50:55.006Z,96704.91
2023-03-26T14:52:39.501Z,96713.28
2023-03-26T14:54:14.824Z,96705.97
2023-03-26T14:56:02.227Z,96712.69
2023-03-26T14:57:52.551Z,96726.84
2023-03-26T14:59:32.864Z,96728.72
2023-03-26T15:01:47.297Z,96729.75
2023-03-26T15:03:38.765Z,96737.41
2023-03-26T15:05:13.354Z,96736.31
2023-03-26T15:07:06.695Z,96735.56
2023-03-26T15:09:15.946Z,96730.97
2023-03-26T15:11:02.500Z,96735.50
2023-03-26T15:12:50.926Z,96735.09
2023-03-26T15:14:55.003Z,96740.97
2023-03-26T15:16:29.424Z,96737.78
2023-03-26T15:18:39.374Z,96734.31
2023-03-26T15:20:17.137Z,96751.28
2023-03-26T15:22:26.100Z,96763.94
2023-03-26T15:24:22.747Z,96766.06
2023-03-26T15:25:57.217Z,96785.97
2023-03-26T15:28:16.618Z,96785.50
2023-03-26T15:30:04.343Z,96790.16
2023-03-26T15:32:09.272Z,96796.88
2023-03-26T15:33:57.112Z,96791.19
2023-03-26T15:36:09.103Z,96787.22
2023-03-26T15:38:10.069Z,96796.91
2023-03-26T15:39:59.033Z,96801.91
2023-03-26T15:41:47.007Z,96804.50
2023-03-26T15:43:20.640Z,96793.03
2023-03-26T15:45:29.695Z,96796.41
2023-03-26T15:47:32.023Z,96796.56
2023-03-26T15:49:22.475Z,96786.47
2023-03-26T15:51:09.192Z,96780.41
2023-03-26T15:53:09.823Z,96784.25
2023-03-26T15:55:09.542Z,96787.16
2023-03-26T15:56:58.312Z,96779.38
2023-03-26T15:58:36.843Z,96779.03
2023-03-26T16:00:22.200Z,96780.63
2023-03-26T16:02:04.909Z,96781.50
2023-03-26T16:03:54.520Z,96803.06
2023-03-26T16:05:29.110Z,96816.44
2023-03-26T16:07:09.723Z,96810.50
2023-03-26T16:08:57.661Z,96821.53
2023-03-26T16:10:52.484Z,96823.63
2023-03-26T16:12:28.452Z,96823.53
2023-03-26T16:14:23.498Z,96823.81
2023-03-26T16:16:04.684Z,96821.13
2023-03-26T16:18:10.253Z,96813.34
2023-03-26T16:19:58.645Z,96816.56
2023-03-26T16:21:32.289Z,96820.09
2023-03-26T16:23:06.194Z,96824.84
2023-03-26T16:24:46.693Z,96828.91
2023-03-26T16:26:40.158Z,96827.72
2023-03-26T16:28:30.819Z,96839.50
2023-03-26T16:30:16.422Z,96843.31
2023-03-26T16:32:09.671Z,96842.03
2023-03-26T16:33:50.664Z,96843.50
2023-03-26T16:35:39.441Z,96840.44
2023-03-26T16:37:36.458Z,96850.53
2023-03-26T16:39:11.648Z,96846.84
2023-03-26T16:41:15.194Z,96848.97
2023-03-26T16:43:05.342Z,96850.25
2023-03-26T16:45:07.500Z,96852.78
2023-03-26T16:46:57.808Z,96850.25
2023-03-26T16:48:51.518Z,96858.19
2023-03-26T16:50:35.481Z,96848.00
2023-03-26T16:52:10.614Z,96856.09
2023-03-26T16:53:49.431Z,96859.88
2023-03-26T16:55:32.694Z,96858.78
2023-03-26T16:57:23.350Z,96855.47
2023-03-26T16:59:00.490Z,96861.00
2023-03-26T17:00:40.881Z,96861.28
2023-03-26T17:02:37.703Z,96862.88
2023-03-26T17:04:17.242Z,96864.13
2023-03-26T17:05:56.640Z,96871.88
2023-03-26T17:07:47.214Z,96871.81
2023-03-26T17:09:51.943Z,96867.47
2023-03-26T17:11:41.957Z,96868.56
2023-03-26T17:13:23.690Z,96875.34
2023-03-26T17:15:08.429Z,96875.50
2023-03-26T17:16:49.926Z,96861.56
2023-03-26T17:18:27.385Z,96859.91
2023-03-26T17:20:17.248Z,96861.00
2023-03-26T17:21:55.903Z,96861.44
2023-03-26T17:23:27.506Z,96859.09
2023-03-26T17:25:19.788Z,96865.69
2023-03-26T17:27:17.960Z,96866.44
2023-03-26T17:29:05.756Z,96869.09
2023-03-26T17:31:03.535Z,96874.91
2023-03-26T17:33:02.745Z,96874.38
2023-03-26T17:34:52.190Z,96873.13
2023-03-26T17:36:40.588Z,96869.97
2023-03-26T17:38:17.899Z,96871.78
2023-03-26T17:39:55.897Z,96869.00
2023-03-26T17:42:09.859Z,96866.94
2023-03-26T17:43:52.200Z,96868.38
2023-03-26T17:45:30.405Z,96856.56
2023-03-26T17:47:03.598Z,96854.13
2023-03-26T17:48:38.471Z,96857.28
2023-03-26T17:50:53.999Z,96854.28
2023-03-26T17:52:41.672Z,96855.97
2023-03-26T17:54:27.337Z,96861.13
2023-03-26T17:56:04.446Z,96858.94
2023-03-26T17:57:46.484Z,96851.63
2023-03-26T17:59:23.556Z,96853.97
2023-03-26T18:01:14.550Z,96851.34
2023-03-26T18:03:01.330Z,96852.44
2023-03-26T18:04:38.514Z,96851.25
2023-03-26T18:06:42.240Z,96853.25
2023-03-26T18:08:25.619Z,96860.28
2023-03-26T18:10:28.809Z,96860.75
2023-03-26T18:12:00.485Z,96856.06
2023-03-26T18:14:09.173Z,96859.66
2023-03-26T18:16:18.084Z,96861.19
2023-03-26T18:17:50.468Z,96862.19
2023-03-26T18:19:23.365Z,96865.13
2023-03-26T18:20:57.168Z,96855.25
2023-03-26T18:22:30.336Z,96863.25
2023-03-26T18:24:04.644Z,96863.75
2023-03-26T18:25:36.513Z,96859.34
2023-03-26T18:27:16.489Z,96854.22
2023-03-26T18:29:11.398Z,96861.28
2023-03-26T18:30:48.311Z,96862.63
2023-03-26T18:32:22.459Z,96860.41
2023-03-26T18:33:58.994Z,96861.94
2023-03-26T18:35:41.854Z,96867.31
2023-03-26T18:37:14.853Z,96863.22
2023-03-26T18:38:48.916Z,96864.63
2023-03-26T18:40:22.286Z,96868.41
2023-03-26T18:41:54.609Z,96865.28
2023-03-26T18:43:34.896Z,96868.09
2023-03-26T18:45:23.582Z,96861.91
2023-03-26T18:46:55.482Z,96872.50
2023-03-26T18:48:29.082Z,96859.34
2023-03-26T18:50:00.777Z,96869.94
2023-03-26T18:51:35.029Z,96858.03
2023-03-26T18:53:35.723Z,96870.09
2023-03-26T18:55:11.535Z,96867.16
2023-03-26T18:56:47.381Z,96864.78
2023-03-26T18:58:32.912Z,96862.81
2023-03-26T19:00:25.410Z,96866.19
2023-03-26T19:01:59.213Z,96862.47
2023-03-26T19:03:35.604Z,96871.78
2023-03-26T19:05:12.773Z,96875.03
2023-03-26T19:06:46.200Z,96874.09
2023-03-26T19:08:18.580Z,96872.63
2023-03-26T19:09:53.425Z,96876.97
2023-03-26T19:11:26.463Z,96875.66
2023-03-26T19:13:01.105Z,96869.63
2023-03-26T19:14:37.030Z,96865.75
2023-03-26T19:16:22.905Z,96860.31
2023-03-26T19:18:03.934Z,96863.28
2023-03-26T19:19:38.860Z,96873.84
2023-03-26T19:21:10.652Z,96870.69
2023-03-26T19:22:44.687Z,96866.66
2023-03-26T19:24:18.784Z,96865.53
2023-03-26T19:25:54.974Z,96857.50
2023-03-26T19:27:26.707Z,96856.53
2023-03-26T19:28:58.668Z,96868.13
2023-03-26T19:30:33.749Z,96862.47
2023-03-26T19:32:16.964Z,96866.06
2023-03-26T19:34:01.848Z,96869.19
2023-03-26T19:35:39.412Z,96869.78
2023-03-26T19:37:25.347Z,96866.84
2023-03-26T19:39:00.050Z,96870.78
2023-03-26T19:40:34.329Z,96872.38
2023-03-26T19:42:07.550Z,96878.91
2023-03-26T19:43:39.699Z,96876.72
2023-03-26T19:45:23.232Z,96867.16
2023-03-26T19:47:03.576Z,96859.69
2023-03-26T19:48:45.507Z,96856.41
2023-03-26T19:50:30.104Z,96867.13
2023-03-26T19:52:27.030Z,96860.00
2023-03-26T19:54:00.879Z,96867.97
2023-03-26T19:55:33.854Z,96867.31
2023-03-26T19:57:05.578Z,96855.44
2023-03-26T19:58:37.614Z,96863.75
2023-03-26T20:00:14.209Z,96859.50
2023-03-26T20:01:46.277Z,96855.97
2023-03-26T20:03:24.642Z,96850.63
2023-03-26T20:04:56.597Z,96859.25
2023-03-26T20:06:42.336Z,96858.81
2023-03-26T20:08:15.969Z,96852.81
2023-03-26T20:09:52.508Z,96855.88
2023-03-26T20:11:33.353Z,96855.72
2023-03-26T20:13:15.371Z,96852.38
2023-03-26T20:14:48.469Z,96855.50
2023-03-26T20:16:30.593Z,96843.63
2023-03-26T20:18:02.864Z,96834.81
2023-03-26T20:19:35.368Z,96843.81
2023-03-26T20:21:13.462Z,96844.66
2023-03-26T20:22:48.172Z,96835.34
2023-03-26T20:24:21.511Z,96842.16